sensor_id;sensor_type;location;lat;lon;timestamp;P1;durP1;ratioP1;P2;durP2;ratioP2
40072;SDS011;25774;52.256;9.356;2023-05-10T00:01:14;5.23;;;1.80;;
40072;SDS011;25774;52.256;9.356;2023-05-10T00:03:39;6.90;;;1.53;;
40072;SDS011;25774;52.256;9.356;2023-05-10T00:06:05;5.87;;;2.00;;
40072;SDS011;25774;52.256;9.356;2023-05-10T00:08:30;3.10;;;1.47;;
40072;SDS011;25774;52.256;9.356;2023-05-10T00:10:55;3.37;;;1.63;;
40072;SDS011;25774;52.256;9.356;2023-05-10T00:13:21;7.10;;;2.20;;
40072;SDS011;25774;52.256;9.356;2023-05-10T00:15:46;3.00;;;1.63;;
40072;SDS011;25774;52.256;9.356;2023-05-10T00:18:11;6.00;;;2.20;;
40072;SDS011;25774;52.256;9.356;2023-05-10T00:20:36;5.00;;;1.97;;
40072;SDS011;25774;52.256;9.356;2023-05-10T00:23:01;7.40;;;2.83;;
40072;SDS011;25774;52.256;9.356;2023-05-10T00:25:27;4.53;;;2.30;;
40072;SDS011;25774;52.256;9.356;2023-05-10T00:27:52;4.17;;;1.70;;
40072;SDS011;25774;52.256;9.356;2023-05-10T00:30:20;3.17;;;1.80;;
40072;SDS011;25774;52.256;9.356;2023-05-10T00:32:45;2.93;;;1.90;;
40072;SDS011;25774;52.256;9.356;2023-05-10T00:35:10;3.73;;;2.20;;
40072;SDS011;25774;52.256;9.356;2023-05-10T00:37:36;5.50;;;2.23;;
40072;SDS011;25774;52.256;9.356;2023-05-10T00:40:01;3.37;;;2.03;;
40072;SDS011;25774;52.256;9.356;2023-05-10T00:42:26;4.50;;;2.10;;
40072;SDS011;25774;52.256;9.356;2023-05-10T00:44:52;4.53;;;1.70;;
40072;SDS011;25774;52.256;9.356;2023-05-10T00:47:17;4.18;;;2.00;;
40072;SDS011;25774;52.256;9.356;2023-05-10T00:49:43;4.53;;;2.10;;
40072;SDS011;25774;52.256;9.356;2023-05-10T00:52:09;3.20;;;2.10;;
40072;SDS011;25774;52.256;9.356;2023-05-10T00:54:34;3.38;;;2.00;;
40072;SDS011;25774;52.256;9.356;2023-05-10T00:57:00;4.13;;;2.10;;
40072;SDS011;25774;52.256;9.356;2023-05-10T00:59:25;4.33;;;1.93;;
40072;SDS011;25774;52.256;9.356;2023-05-10T01:01:50;2.72;;;1.70;;
40072;SDS011;25774;52.256;9.356;2023-05-10T01:04:16;3.30;;;1.88;;
40072;SDS011;25774;52.256;9.356;2023-05-10T01:06:42;5.67;;;2.00;;
40072;SDS011;25774;52.256;9.356;2023-05-10T01:09:07;3.53;;;1.90;;
40072;SDS011;25774;52.256;9.356;2023-05-10T01:11:34;2.70;;;1.77;;
40072;SDS011;25774;52.256;9.356;2023-05-10T01:14:00;6.03;;;1.70;;
40072;SDS011;25774;52.256;9.356;2023-05-10T01:16:25;3.40;;;1.97;;
40072;SDS011;25774;52.256;9.356;2023-05-10T01:18:51;4.05;;;2.10;;
40072;SDS011;25774;52.256;9.356;2023-05-10T01:21:19;2.87;;;1.70;;
40072;SDS011;25774;52.256;9.356;2023-05-10T01:28:57;3.47;;;1.77;;
40072;SDS011;25774;52.256;9.356;2023-05-10T01:34:13;6.95;;;2.55;;
40072;SDS011;25774;52.256;9.356;2023-05-10T01:41:57;3.20;;;2.00;;
40072;SDS011;25774;52.256;9.356;2023-05-10T01:49:26;4.13;;;2.20;;
40072;SDS011;25774;52.256;9.356;2023-05-10T01:51:54;4.85;;;1.90;;
40072;SDS011;25774;52.256;9.356;2023-05-10T01:54:21;5.25;;;1.80;;
40072;SDS011;25774;52.256;9.356;2023-05-10T01:59:12;3.63;;;2.00;;
40072;SDS011;25774;52.256;9.356;2023-05-10T02:01:39;4.95;;;2.13;;
40072;SDS011;25774;52.256;9.356;2023-05-10T02:04:05;3.53;;;1.98;;
40072;SDS011;25774;52.256;9.356;2023-05-10T02:06:31;4.00;;;2.13;;
40072;SDS011;25774;52.256;9.356;2023-05-10T02:08:57;4.25;;;2.47;;
40072;SDS011;25774;52.256;9.356;2023-05-10T02:11:23;4.07;;;2.60;;
40072;SDS011;25774;52.256;9.356;2023-05-10T02:13:50;4.28;;;2.13;;
40072;SDS011;25774;52.256;9.356;2023-05-10T02:16:16;5.15;;;2.78;;
40072;SDS011;25774;52.256;9.356;2023-05-10T02:18:43;5.32;;;2.15;;
40072;SDS011;25774;52.256;9.356;2023-05-10T02:21:09;4.07;;;2.60;;
40072;SDS011;25774;52.256;9.356;2023-05-10T02:23:35;6.57;;;2.50;;
40072;SDS011;25774;52.256;9.356;2023-05-10T02:26:01;3.40;;;2.10;;
40072;SDS011;25774;52.256;9.356;2023-05-10T02:28:27;5.00;;;2.40;;
40072;SDS011;25774;52.256;9.356;2023-05-10T02:30:52;3.97;;;2.17;;
40072;SDS011;25774;52.256;9.356;2023-05-10T02:33:19;3.08;;;1.77;;
40072;SDS011;25774;52.256;9.356;2023-05-10T02:35:45;5.13;;;2.50;;
40072;SDS011;25774;52.256;9.356;2023-05-10T02:38:11;3.75;;;2.60;;
40072;SDS011;25774;52.256;9.356;2023-05-10T02:40:37;4.07;;;2.40;;
40072;SDS011;25774;52.256;9.356;2023-05-10T02:43:03;6.45;;;2.58;;
40072;SDS011;25774;52.256;9.356;2023-05-10T02:45:30;3.80;;;2.28;;
40072;SDS011;25774;52.256;9.356;2023-05-10T02:47:56;4.43;;;1.85;;
40072;SDS011;25774;52.256;9.356;2023-05-10T02:50:21;2.92;;;1.80;;
40072;SDS011;25774;52.256;9.356;2023-05-10T02:52:47;4.15;;;2.30;;
40072;SDS011;25774;52.256;9.356;2023-05-10T02:55:15;4.18;;;2.55;;
40072;SDS011;25774;52.256;9.356;2023-05-10T02:57:43;3.33;;;2.05;;
40072;SDS011;25774;52.256;9.356;2023-05-10T03:00:11;4.95;;;2.50;;
40072;SDS011;25774;52.256;9.356;2023-05-10T03:02:36;4.50;;;2.00;;
40072;SDS011;25774;52.256;9.356;2023-05-10T03:05:01;3.57;;;1.83;;
40072;SDS011;25774;52.256;9.356;2023-05-10T03:07:28;3.67;;;2.05;;
40072;SDS011;25774;52.256;9.356;2023-05-10T03:09:53;5.67;;;2.63;;
40072;SDS011;25774;52.256;9.356;2023-05-10T03:22:17;6.25;;;3.17;;
40072;SDS011;25774;52.256;9.356;2023-05-10T03:24:46;3.88;;;2.20;;
40072;SDS011;25774;52.256;9.356;2023-05-10T03:27:11;3.07;;;2.27;;
40072;SDS011;25774;52.256;9.356;2023-05-10T03:29:37;3.60;;;2.00;;
40072;SDS011;25774;52.256;9.356;2023-05-10T03:32:03;3.70;;;2.20;;
40072;SDS011;25774;52.256;9.356;2023-05-10T03:34:30;5.30;;;2.50;;
40072;SDS011;25774;52.256;9.356;2023-05-10T03:36:55;5.80;;;3.20;;
40072;SDS011;25774;52.256;9.356;2023-05-10T03:39:21;5.23;;;2.37;;
40072;SDS011;25774;52.256;9.356;2023-05-10T03:44:12;5.53;;;2.70;;
40072;SDS011;25774;52.256;9.356;2023-05-10T03:46:37;8.17;;;2.97;;
40072;SDS011;25774;52.256;9.356;2023-05-10T03:49:02;4.13;;;2.33;;
40072;SDS011;25774;52.256;9.356;2023-05-10T03:51:27;5.67;;;3.10;;
40072;SDS011;25774;52.256;9.356;2023-05-10T03:53:53;6.57;;;2.90;;
40072;SDS011;25774;52.256;9.356;2023-05-10T03:56:18;7.05;;;2.58;;
40072;SDS011;25774;52.256;9.356;2023-05-10T03:58:44;8.43;;;2.97;;
40072;SDS011;25774;52.256;9.356;2023-05-10T04:01:09;7.55;;;3.47;;
40072;SDS011;25774;52.256;9.356;2023-05-10T04:03:34;4.10;;;2.50;;
40072;SDS011;25774;52.256;9.356;2023-05-10T04:08:27;5.65;;;3.13;;
40072;SDS011;25774;52.256;9.356;2023-05-10T04:13:19;4.83;;;2.87;;
40072;SDS011;25774;52.256;9.356;2023-05-10T04:18:11;5.63;;;2.40;;
40072;SDS011;25774;52.256;9.356;2023-05-10T04:20:36;7.13;;;3.35;;
40072;SDS011;25774;52.256;9.356;2023-05-10T04:23:01;8.23;;;2.80;;
40072;SDS011;25774;52.256;9.356;2023-05-10T04:25:27;6.63;;;3.13;;
40072;SDS011;25774;52.256;9.356;2023-05-10T04:27:52;8.00;;;3.00;;
40072;SDS011;25774;52.256;9.356;2023-05-10T04:30:17;5.25;;;3.03;;
40072;SDS011;25774;52.256;9.356;2023-05-10T04:32:42;4.57;;;2.70;;
40072;SDS011;25774;52.256;9.356;2023-05-10T04:35:07;4.47;;;3.13;;
40072;SDS011;25774;52.256;9.356;2023-05-10T04:37:40;6.18;;;2.97;;
40072;SDS011;25774;52.256;9.356;2023-05-10T04:40:05;5.65;;;3.03;;
40072;SDS011;25774;52.256;9.356;2023-05-10T04:42:31;5.70;;;3.38;;
40072;SDS011;25774;52.256;9.356;2023-05-10T04:44:56;9.47;;;3.73;;
40072;SDS011;25774;52.256;9.356;2023-05-10T04:47:22;4.93;;;3.27;;
40072;SDS011;25774;52.256;9.356;2023-05-10T04:49:47;5.75;;;2.92;;
40072;SDS011;25774;52.256;9.356;2023-05-10T04:52:12;5.40;;;3.10;;
40072;SDS011;25774;52.256;9.356;2023-05-10T04:57:04;6.32;;;3.35;;
40072;SDS011;25774;52.256;9.356;2023-05-10T04:59:29;5.27;;;2.80;;
40072;SDS011;25774;52.256;9.356;2023-05-10T05:01:54;5.30;;;3.53;;
40072;SDS011;25774;52.256;9.356;2023-05-10T05:04:20;6.70;;;3.30;;
40072;SDS011;25774;52.256;9.356;2023-05-10T05:06:45;11.53;;;3.13;;
40072;SDS011;25774;52.256;9.356;2023-05-10T05:09:10;6.80;;;3.40;;
40072;SDS011;25774;52.256;9.356;2023-05-10T05:11:35;8.77;;;3.40;;
40072;SDS011;25774;52.256;9.356;2023-05-10T05:14:00;6.27;;;3.63;;
40072;SDS011;25774;52.256;9.356;2023-05-10T05:16:26;5.60;;;3.47;;
40072;SDS011;25774;52.256;9.356;2023-05-10T05:18:51;6.27;;;3.70;;
40072;SDS011;25774;52.256;9.356;2023-05-10T05:21:16;5.93;;;3.40;;
40072;SDS011;25774;52.256;9.356;2023-05-10T05:23:42;8.80;;;4.38;;
40072;SDS011;25774;52.256;9.356;2023-05-10T05:26:08;7.78;;;3.90;;
40072;SDS011;25774;52.256;9.356;2023-05-10T05:28:33;6.70;;;3.80;;
40072;SDS011;25774;52.256;9.356;2023-05-10T05:31:02;6.50;;;3.33;;
40072;SDS011;25774;52.256;9.356;2023-05-10T05:33:27;6.80;;;3.87;;
40072;SDS011;25774;52.256;9.356;2023-05-10T05:35:52;5.77;;;3.77;;
40072;SDS011;25774;52.256;9.356;2023-05-10T05:38:17;7.77;;;3.50;;
40072;SDS011;25774;52.256;9.356;2023-05-10T05:40:42;6.78;;;3.83;;
40072;SDS011;25774;52.256;9.356;2023-05-10T05:43:08;8.33;;;3.20;;
40072;SDS011;25774;52.256;9.356;2023-05-10T05:45:33;8.67;;;3.97;;
40072;SDS011;25774;52.256;9.356;2023-05-10T05:47:58;4.77;;;3.40;;
40072;SDS011;25774;52.256;9.356;2023-05-10T05:50:23;6.47;;;4.10;;
40072;SDS011;25774;52.256;9.356;2023-05-10T05:52:49;8.73;;;4.40;;
40072;SDS011;25774;52.256;9.356;2023-05-10T05:55:14;5.13;;;3.33;;
40072;SDS011;25774;52.256;9.356;2023-05-10T05:57:39;5.83;;;3.73;;
40072;SDS011;25774;52.256;9.356;2023-05-10T06:00:04;6.00;;;3.77;;
40072;SDS011;25774;52.256;9.356;2023-05-10T06:02:30;5.93;;;3.72;;
40072;SDS011;25774;52.256;9.356;2023-05-10T06:04:55;6.37;;;4.33;;
40072;SDS011;25774;52.256;9.356;2023-05-10T06:07:20;5.17;;;3.60;;
40072;SDS011;25774;52.256;9.356;2023-05-10T06:09:46;5.57;;;3.90;;
40072;SDS011;25774;52.256;9.356;2023-05-10T06:12:11;7.13;;;4.33;;
40072;SDS011;25774;52.256;9.356;2023-05-10T06:14:36;5.93;;;3.10;;
40072;SDS011;25774;52.256;9.356;2023-05-10T06:17:02;5.73;;;3.60;;
40072;SDS011;25774;52.256;9.356;2023-05-10T06:19:29;6.60;;;3.50;;
40072;SDS011;25774;52.256;9.356;2023-05-10T06:21:54;7.67;;;4.60;;
40072;SDS011;25774;52.256;9.356;2023-05-10T06:24:19;6.37;;;3.90;;
40072;SDS011;25774;52.256;9.356;2023-05-10T06:26:44;6.60;;;4.30;;
40072;SDS011;25774;52.256;9.356;2023-05-10T06:29:10;6.07;;;3.23;;
40072;SDS011;25774;52.256;9.356;2023-05-10T06:31:35;7.83;;;4.30;;
40072;SDS011;25774;52.256;9.356;2023-05-10T06:34:00;5.87;;;3.50;;
40072;SDS011;25774;52.256;9.356;2023-05-10T06:36:25;5.87;;;3.40;;
40072;SDS011;25774;52.256;9.356;2023-05-10T06:38:52;8.05;;;3.63;;
40072;SDS011;25774;52.256;9.356;2023-05-10T06:41:17;4.47;;;3.40;;
40072;SDS011;25774;52.256;9.356;2023-05-10T06:43:42;6.00;;;3.67;;
40072;SDS011;25774;52.256;9.356;2023-05-10T06:46:08;4.55;;;2.63;;
40072;SDS011;25774;52.256;9.356;2023-05-10T06:48:33;6.30;;;2.67;;
40072;SDS011;25774;52.256;9.356;2023-05-10T06:50:59;3.80;;;1.77;;
40072;SDS011;25774;52.256;9.356;2023-05-10T06:53:24;4.03;;;1.40;;
40072;SDS011;25774;52.256;9.356;2023-05-10T06:55:49;1.40;;;0.90;;
40072;SDS011;25774;52.256;9.356;2023-05-10T06:58:14;1.30;;;0.83;;
40072;SDS011;25774;52.256;9.356;2023-05-10T07:00:40;3.10;;;0.80;;
40072;SDS011;25774;52.256;9.356;2023-05-10T07:03:07;1.60;;;0.80;;
40072;SDS011;25774;52.256;9.356;2023-05-10T07:05:32;0.90;;;0.50;;
40072;SDS011;25774;52.256;9.356;2023-05-10T07:07:58;1.03;;;0.50;;
40072;SDS011;25774;52.256;9.356;2023-05-10T07:10:23;1.90;;;0.50;;
40072;SDS011;25774;52.256;9.356;2023-05-10T07:12:48;1.93;;;0.30;;
40072;SDS011;25774;52.256;9.356;2023-05-10T07:15:14;0.67;;;0.50;;
40072;SDS011;25774;52.256;9.356;2023-05-10T07:17:39;1.67;;;0.50;;
40072;SDS011;25774;52.256;9.356;2023-05-10T07:20:04;0.40;;;0.40;;
40072;SDS011;25774;52.256;9.356;2023-05-10T07:22:30;0.63;;;0.50;;
40072;SDS011;25774;52.256;9.356;2023-05-10T07:24:55;0.50;;;0.40;;
40072;SDS011;25774;52.256;9.356;2023-05-10T07:27:20;0.57;;;0.23;;
40072;SDS011;25774;52.256;9.356;2023-05-10T07:29:47;0.80;;;0.30;;
40072;SDS011;25774;52.256;9.356;2023-05-10T07:32:12;0.80;;;0.30;;
40072;SDS011;25774;52.256;9.356;2023-05-10T07:34:37;1.83;;;0.40;;
40072;SDS011;25774;52.256;9.356;2023-05-10T07:37:02;0.60;;;0.30;;
40072;SDS011;25774;52.256;9.356;2023-05-10T07:39:29;0.50;;;0.30;;
40072;SDS011;25774;52.256;9.356;2023-05-10T07:44:19;0.37;;;0.30;;
40072;SDS011;25774;52.256;9.356;2023-05-10T07:46:45;0.35;;;0.30;;
40072;SDS011;25774;52.256;9.356;2023-05-10T07:49:10;0.70;;;0.43;;
40072;SDS011;25774;52.256;9.356;2023-05-10T07:51:35;0.60;;;0.40;;
40072;SDS011;25774;52.256;9.356;2023-05-10T07:54:01;0.37;;;0.30;;
40072;SDS011;25774;52.256;9.356;2023-05-10T07:56:28;0.57;;;0.50;;
40072;SDS011;25774;52.256;9.356;2023-05-10T07:58:57;1.35;;;0.70;;
40072;SDS011;25774;52.256;9.356;2023-05-10T08:01:23;0.88;;;0.52;;
40072;SDS011;25774;52.256;9.356;2023-05-10T08:03:48;2.22;;;0.65;;
40072;SDS011;25774;52.256;9.356;2023-05-10T08:06:14;1.57;;;0.50;;
40072;SDS011;25774;52.256;9.356;2023-05-10T08:11:05;0.80;;;0.40;;
40072;SDS011;25774;52.256;9.356;2023-05-10T08:13:30;0.80;;;0.40;;
40072;SDS011;25774;52.256;9.356;2023-05-10T08:15:56;0.60;;;0.40;;
40072;SDS011;25774;52.256;9.356;2023-05-10T08:18:21;1.70;;;0.40;;
40072;SDS011;25774;52.256;9.356;2023-05-10T08:20:46;1.10;;;0.50;;
40072;SDS011;25774;52.256;9.356;2023-05-10T08:23:12;1.30;;;0.40;;
40072;SDS011;25774;52.256;9.356;2023-05-10T08:25:38;0.55;;;0.40;;
40072;SDS011;25774;52.256;9.356;2023-05-10T08:28:03;1.63;;;1.27;;
40072;SDS011;25774;52.256;9.356;2023-05-10T08:30:28;0.77;;;0.40;;
40072;SDS011;25774;52.256;9.356;2023-05-10T08:32:53;1.30;;;0.60;;
40072;SDS011;25774;52.256;9.356;2023-05-10T08:35:18;1.60;;;0.50;;
40072;SDS011;25774;52.256;9.356;2023-05-10T08:37:44;1.03;;;0.63;;
40072;SDS011;25774;52.256;9.356;2023-05-10T08:40:09;1.87;;;0.63;;
40072;SDS011;25774;52.256;9.356;2023-05-10T08:42:36;1.02;;;0.52;;
40072;SDS011;25774;52.256;9.356;2023-05-10T08:45:07;1.00;;;0.40;;
40072;SDS011;25774;52.256;9.356;2023-05-10T08:47:32;1.08;;;0.68;;
40072;SDS011;25774;52.256;9.356;2023-05-10T08:49:57;1.70;;;0.67;;
40072;SDS011;25774;52.256;9.356;2023-05-10T08:52:26;1.02;;;0.50;;
40072;SDS011;25774;52.256;9.356;2023-05-10T08:54:53;0.80;;;0.50;;
40072;SDS011;25774;52.256;9.356;2023-05-10T08:57:18;2.83;;;0.90;;
40072;SDS011;25774;52.256;9.356;2023-05-10T08:59:44;1.25;;;0.82;;
40072;SDS011;25774;52.256;9.356;2023-05-10T09:02:09;2.23;;;0.73;;
40072;SDS011;25774;52.256;9.356;2023-05-10T09:04:35;1.77;;;1.02;;
40072;SDS011;25774;52.256;9.356;2023-05-10T09:07:00;2.60;;;1.20;;
40072;SDS011;25774;52.256;9.356;2023-05-10T09:09:27;1.42;;;0.80;;
40072;SDS011;25774;52.256;9.356;2023-05-10T09:11:53;2.20;;;1.05;;
40072;SDS011;25774;52.256;9.356;2023-05-10T09:14:18;2.50;;;1.38;;
40072;SDS011;25774;52.256;9.356;2023-05-10T09:16:44;1.65;;;1.13;;
40072;SDS011;25774;52.256;9.356;2023-05-10T09:19:10;2.67;;;1.30;;
40072;SDS011;25774;52.256;9.356;2023-05-10T09:21:35;1.98;;;1.27;;
40072;SDS011;25774;52.256;9.356;2023-05-10T09:24:03;4.18;;;1.92;;
40072;SDS011;25774;52.256;9.356;2023-05-10T09:26:29;2.85;;;1.40;;
40072;SDS011;25774;52.256;9.356;2023-05-10T09:28:58;3.43;;;1.83;;
40072;SDS011;25774;52.256;9.356;2023-05-10T09:31:23;2.78;;;1.50;;
40072;SDS011;25774;52.256;9.356;2023-05-10T09:33:50;3.45;;;1.67;;
40072;SDS011;25774;52.256;9.356;2023-05-10T09:36:16;2.50;;;1.63;;
40072;SDS011;25774;52.256;9.356;2023-05-10T09:38:45;4.43;;;2.00;;
40072;SDS011;25774;52.256;9.356;2023-05-10T09:41:17;3.22;;;1.40;;
40072;SDS011;25774;52.256;9.356;2023-05-10T09:43:42;3.47;;;1.40;;
40072;SDS011;25774;52.256;9.356;2023-05-10T09:46:10;2.73;;;1.20;;
40072;SDS011;25774;52.256;9.356;2023-05-10T09:48:43;2.78;;;1.60;;
40072;SDS011;25774;52.256;9.356;2023-05-10T09:51:09;4.45;;;1.73;;
40072;SDS011;25774;52.256;9.356;2023-05-10T09:53:34;3.53;;;1.40;;
40072;SDS011;25774;52.256;9.356;2023-05-10T09:55:59;3.57;;;1.70;;
40072;SDS011;25774;52.256;9.356;2023-05-10T09:58:25;6.00;;;1.57;;
40072;SDS011;25774;52.256;9.356;2023-05-10T10:00:50;4.07;;;1.70;;
40072;SDS011;25774;52.256;9.356;2023-05-10T10:03:20;4.15;;;2.15;;
40072;SDS011;25774;52.256;9.356;2023-05-10T10:05:46;4.28;;;2.35;;
40072;SDS011;25774;52.256;9.356;2023-05-10T10:08:11;5.45;;;2.60;;
40072;SDS011;25774;52.256;9.356;2023-05-10T10:10:37;5.43;;;2.47;;
40072;SDS011;25774;52.256;9.356;2023-05-10T10:13:03;3.88;;;2.40;;
40072;SDS011;25774;52.256;9.356;2023-05-10T10:15:29;7.07;;;3.03;;
40072;SDS011;25774;52.256;9.356;2023-05-10T10:17:55;5.40;;;2.60;;
40072;SDS011;25774;52.256;9.356;2023-05-10T10:20:21;5.67;;;2.77;;
40072;SDS011;25774;52.256;9.356;2023-05-10T10:22:47;3.92;;;2.33;;
40072;SDS011;25774;52.256;9.356;2023-05-10T10:25:14;4.88;;;2.53;;
40072;SDS011;25774;52.256;9.356;2023-05-10T10:27:45;6.65;;;3.10;;
40072;SDS011;25774;52.256;9.356;2023-05-10T10:30:15;5.15;;;2.80;;
40072;SDS011;25774;52.256;9.356;2023-05-10T10:35:08;5.13;;;2.20;;
40072;SDS011;25774;52.256;9.356;2023-05-10T10:37:43;4.05;;;2.28;;
40072;SDS011;25774;52.256;9.356;2023-05-10T10:42:50;4.63;;;2.45;;
40072;SDS011;25774;52.256;9.356;2023-05-10T10:45:16;5.13;;;3.08;;
40072;SDS011;25774;52.256;9.356;2023-05-10T10:47:41;4.97;;;2.05;;
40072;SDS011;25774;52.256;9.356;2023-05-10T10:50:08;3.50;;;2.17;;
40072;SDS011;25774;52.256;9.356;2023-05-10T10:52:36;4.32;;;2.10;;
40072;SDS011;25774;52.256;9.356;2023-05-10T10:57:28;3.70;;;2.50;;
40072;SDS011;25774;52.256;9.356;2023-05-10T11:00:37;6.35;;;2.85;;
40072;SDS011;25774;52.256;9.356;2023-05-10T11:02:44;5.82;;;2.63;;
40072;SDS011;25774;52.256;9.356;2023-05-10T11:07:55;4.32;;;2.10;;
40072;SDS011;25774;52.256;9.356;2023-05-10T11:12:54;5.00;;;2.70;;
40072;SDS011;25774;52.256;9.356;2023-05-10T11:15:48;5.38;;;2.72;;
40072;SDS011;25774;52.256;9.356;2023-05-10T11:18:17;4.65;;;2.58;;
40072;SDS011;25774;52.256;9.356;2023-05-10T11:20:43;5.22;;;2.85;;
40072;SDS011;25774;52.256;9.356;2023-05-10T11:23:13;5.90;;;2.40;;
40072;SDS011;25774;52.256;9.356;2023-05-10T11:25:44;4.40;;;2.20;;
40072;SDS011;25774;52.256;9.356;2023-05-10T11:28:09;5.63;;;2.90;;
40072;SDS011;25774;52.256;9.356;2023-05-10T11:30:35;5.43;;;2.67;;
40072;SDS011;25774;52.256;9.356;2023-05-10T11:33:01;3.97;;;2.50;;
40072;SDS011;25774;52.256;9.356;2023-05-10T11:37:53;7.03;;;3.17;;
40072;SDS011;25774;52.256;9.356;2023-05-10T11:40:21;6.33;;;2.90;;
40072;SDS011;25774;52.256;9.356;2023-05-10T11:42:46;6.70;;;2.92;;
40072;SDS011;25774;52.256;9.356;2023-05-10T11:45:11;6.70;;;3.10;;
40072;SDS011;25774;52.256;9.356;2023-05-10T11:47:37;6.87;;;3.33;;
40072;SDS011;25774;52.256;9.356;2023-05-10T11:50:03;4.60;;;2.70;;
40072;SDS011;25774;52.256;9.356;2023-05-10T11:52:28;5.80;;;3.63;;
40072;SDS011;25774;52.256;9.356;2023-05-10T11:54:54;7.85;;;3.45;;
40072;SDS011;25774;52.256;9.356;2023-05-10T11:57:20;5.55;;;3.20;;
40072;SDS011;25774;52.256;9.356;2023-05-10T11:59:46;6.22;;;3.00;;
40072;SDS011;25774;52.256;9.356;2023-05-10T12:02:11;7.32;;;2.75;;
40072;SDS011;25774;52.256;9.356;2023-05-10T12:04:37;4.90;;;2.30;;
40072;SDS011;25774;52.256;9.356;2023-05-10T12:07:02;4.20;;;2.40;;
40072;SDS011;25774;52.256;9.356;2023-05-10T12:09:27;4.40;;;2.67;;
40072;SDS011;25774;52.256;9.356;2023-05-10T12:11:55;4.00;;;2.37;;
40072;SDS011;25774;52.256;9.356;2023-05-10T12:14:21;3.72;;;2.05;;
40072;SDS011;25774;52.256;9.356;2023-05-10T12:16:47;3.90;;;2.40;;
40072;SDS011;25774;52.256;9.356;2023-05-10T12:19:12;5.60;;;2.35;;
40072;SDS011;25774;52.256;9.356;2023-05-10T12:21:37;5.27;;;2.70;;
40072;SDS011;25774;52.256;9.356;2023-05-10T12:26:29;5.43;;;2.90;;
40072;SDS011;25774;52.256;9.356;2023-05-10T12:28:55;4.90;;;2.63;;
40072;SDS011;25774;52.256;9.356;2023-05-10T12:31:48;6.07;;;3.00;;
40072;SDS011;25774;52.256;9.356;2023-05-10T12:34:22;6.45;;;3.38;;
40072;SDS011;25774;52.256;9.356;2023-05-10T12:36:49;4.20;;;2.50;;
40072;SDS011;25774;52.256;9.356;2023-05-10T12:39:15;7.10;;;2.70;;
40072;SDS011;25774;52.256;9.356;2023-05-10T12:41:40;5.93;;;2.90;;
40072;SDS011;25774;52.256;9.356;2023-05-10T12:44:05;4.57;;;2.80;;
40072;SDS011;25774;52.256;9.356;2023-05-10T12:46:31;6.33;;;2.77;;
40072;SDS011;25774;52.256;9.356;2023-05-10T12:51:21;4.28;;;2.45;;
40072;SDS011;25774;52.256;9.356;2023-05-10T12:53:47;4.07;;;2.05;;
40072;SDS011;25774;52.256;9.356;2023-05-10T12:58:38;4.03;;;2.60;;
40072;SDS011;25774;52.256;9.356;2023-05-10T13:01:04;4.00;;;1.87;;
40072;SDS011;25774;52.256;9.356;2023-05-10T13:03:30;5.00;;;2.33;;
40072;SDS011;25774;52.256;9.356;2023-05-10T13:05:55;3.42;;;1.98;;
40072;SDS011;25774;52.256;9.356;2023-05-10T13:08:20;5.73;;;2.13;;
40072;SDS011;25774;52.256;9.356;2023-05-10T13:10:46;4.43;;;2.17;;
40072;SDS011;25774;52.256;9.356;2023-05-10T13:13:11;2.80;;;1.53;;
40072;SDS011;25774;52.256;9.356;2023-05-10T13:15:36;4.73;;;2.10;;
40072;SDS011;25774;52.256;9.356;2023-05-10T13:20:26;5.25;;;2.17;;
40072;SDS011;25774;52.256;9.356;2023-05-10T13:22:52;3.90;;;2.20;;
40072;SDS011;25774;52.256;9.356;2023-05-10T13:25:17;5.27;;;2.67;;
40072;SDS011;25774;52.256;9.356;2023-05-10T13:27:42;6.70;;;2.77;;
40072;SDS011;25774;52.256;9.356;2023-05-10T13:30:08;8.45;;;2.47;;
40072;SDS011;25774;52.256;9.356;2023-05-10T13:34:58;6.00;;;2.70;;
40072;SDS011;25774;52.256;9.356;2023-05-10T13:37:25;8.63;;;3.33;;
40072;SDS011;25774;52.256;9.356;2023-05-10T13:39:50;6.40;;;2.85;;
40072;SDS011;25774;52.256;9.356;2023-05-10T13:42:15;4.57;;;2.57;;
40072;SDS011;25774;52.256;9.356;2023-05-10T13:44:40;5.63;;;2.90;;
40072;SDS011;25774;52.256;9.356;2023-05-10T13:47:06;5.88;;;2.40;;
40072;SDS011;25774;52.256;9.356;2023-05-10T13:49:31;4.38;;;2.53;;
40072;SDS011;25774;52.256;9.356;2023-05-10T13:54:23;7.07;;;2.42;;
40072;SDS011;25774;52.256;9.356;2023-05-10T13:56:50;5.45;;;2.83;;
40072;SDS011;25774;52.256;9.356;2023-05-10T13:59:16;5.75;;;3.28;;
40072;SDS011;25774;52.256;9.356;2023-05-10T14:04:06;5.50;;;2.30;;
40072;SDS011;25774;52.256;9.356;2023-05-10T14:06:35;6.65;;;3.25;;
40072;SDS011;25774;52.256;9.356;2023-05-10T14:11:25;7.18;;;3.28;;
40072;SDS011;25774;52.256;9.356;2023-05-10T14:13:50;5.97;;;2.87;;
40072;SDS011;25774;52.256;9.356;2023-05-10T14:16:15;7.50;;;3.83;;
40072;SDS011;25774;52.256;9.356;2023-05-10T14:18:41;9.53;;;4.17;;
40072;SDS011;25774;52.256;9.356;2023-05-10T14:21:06;9.50;;;4.87;;
40072;SDS011;25774;52.256;9.356;2023-05-10T14:23:31;10.17;;;5.13;;
40072;SDS011;25774;52.256;9.356;2023-05-10T14:25:56;7.57;;;4.63;;
40072;SDS011;25774;52.256;9.356;2023-05-10T14:28:22;10.40;;;5.13;;
40072;SDS011;25774;52.256;9.356;2023-05-10T14:30:48;9.73;;;5.43;;
40072;SDS011;25774;52.256;9.356;2023-05-10T14:33:14;12.10;;;7.03;;
40072;SDS011;25774;52.256;9.356;2023-05-10T14:35:39;10.37;;;5.17;;
40072;SDS011;25774;52.256;9.356;2023-05-10T14:38:04;8.53;;;4.77;;
40072;SDS011;25774;52.256;9.356;2023-05-10T14:40:30;11.23;;;5.65;;
40072;SDS011;25774;52.256;9.356;2023-05-10T14:42:55;10.55;;;5.88;;
40072;SDS011;25774;52.256;9.356;2023-05-10T14:45:21;11.40;;;5.40;;
40072;SDS011;25774;52.256;9.356;2023-05-10T14:47:47;10.03;;;5.83;;
40072;SDS011;25774;52.256;9.356;2023-05-10T14:50:12;14.20;;;6.60;;
40072;SDS011;25774;52.256;9.356;2023-05-10T14:52:38;11.57;;;6.70;;
40072;SDS011;25774;52.256;9.356;2023-05-10T14:55:03;12.97;;;5.80;;
40072;SDS011;25774;52.256;9.356;2023-05-10T14:57:28;9.43;;;5.30;;
40072;SDS011;25774;52.256;9.356;2023-05-10T14:59:55;11.40;;;5.93;;
40072;SDS011;25774;52.256;9.356;2023-05-10T15:02:20;11.20;;;6.80;;
40072;SDS011;25774;52.256;9.356;2023-05-10T15:04:45;12.93;;;6.97;;
40072;SDS011;25774;52.256;9.356;2023-05-10T15:07:10;12.67;;;7.13;;
40072;SDS011;25774;52.256;9.356;2023-05-10T15:09:39;10.93;;;6.10;;
40072;SDS011;25774;52.256;9.356;2023-05-10T15:12:04;11.87;;;6.30;;
40072;SDS011;25774;52.256;9.356;2023-05-10T15:14:29;11.70;;;6.83;;
40072;SDS011;25774;52.256;9.356;2023-05-10T15:16:55;9.90;;;5.88;;
40072;SDS011;25774;52.256;9.356;2023-05-10T15:19:20;12.87;;;6.03;;
40072;SDS011;25774;52.256;9.356;2023-05-10T15:21:45;13.77;;;6.77;;
40072;SDS011;25774;52.256;9.356;2023-05-10T15:24:12;12.75;;;6.40;;
40072;SDS011;25774;52.256;9.356;2023-05-10T15:26:37;11.90;;;6.00;;
40072;SDS011;25774;52.256;9.356;2023-05-10T15:29:02;11.40;;;5.93;;
40072;SDS011;25774;52.256;9.356;2023-05-10T15:31:27;13.10;;;5.97;;
40072;SDS011;25774;52.256;9.356;2023-05-10T15:33:59;13.53;;;6.70;;
40072;SDS011;25774;52.256;9.356;2023-05-10T15:36:24;13.13;;;6.55;;
40072;SDS011;25774;52.256;9.356;2023-05-10T15:38:49;11.30;;;6.67;;
40072;SDS011;25774;52.256;9.356;2023-05-10T15:41:16;10.37;;;5.40;;
40072;SDS011;25774;52.256;9.356;2023-05-10T15:43:42;8.57;;;5.45;;
40072;SDS011;25774;52.256;9.356;2023-05-10T15:46:07;9.87;;;4.30;;
40072;SDS011;25774;52.256;9.356;2023-05-10T15:48:32;10.37;;;4.63;;
40072;SDS011;25774;52.256;9.356;2023-05-10T15:50:57;11.33;;;4.57;;
40072;SDS011;25774;52.256;9.356;2023-05-10T15:53:22;11.13;;;4.10;;
40072;SDS011;25774;52.256;9.356;2023-05-10T15:55:49;8.57;;;4.63;;
40072;SDS011;25774;52.256;9.356;2023-05-10T15:58:14;9.00;;;4.88;;
40072;SDS011;25774;52.256;9.356;2023-05-10T16:00:39;7.20;;;3.97;;